Bookmark and Share
Track history (hours):
 

Hallinden

Last reported at 2013-Apr-05 01:21 UTC. Time now 2014-Apr-17 03:49 UTC.
Position N 25°13' W 080°02'.
Warning: this ship's position is years out of date!

Length 180 m; draft 7.4 m.

Type: Ship (hazmat cat A). MMSI: 548796000.

NotesDate/timePositionNaut miles runAvg speedWind from/ knotsBaromVisibWave heightAir tempDewpointWater temp
2013-Apr-05 01:21N 25°13' W 080°02'8 9.5
2013-Apr-05 00:33N 25°20' W 079°58'11 9.5
2013-Apr-04 23:21N 25°31' W 079°56'7 9.2
2013-Apr-04 22:33N 25°38' W 079°56'9 8.9
2013-Apr-04 21:34N 25°47' W 079°55'9 8.8
2013-Apr-04 20:33N 25°56' W 079°55'9 8.9
2013-Apr-04 19:34N 26°05' W 079°53'9 9.0
2013-Apr-04 18:33N 26°14' W 079°52'9 9.0
2013-Apr-04 17:33N 26°23' W 079°51'9 8.8
2013-Apr-04 16:33N 26°31' W 079°50'9 8.6
2013-Apr-04 15:33N 26°40' W 079°49'8 8.2
2013-Apr-04 14:33N 26°48' W 079°49'9 8.1
2013-Apr-04 13:26N 26°57' W 079°49'  
2013-Mar-28 20:34N 26°33' W 079°50'1514.5
2013-Mar-28 19:34N 26°19' W 079°52'1212.4
2013-Mar-28 18:34N 26°10' W 080°02'3 2.8
2013-Mar-28 17:27N 26°08' W 080°04'0 0.1
2013-Mar-28 16:27N 26°08' W 080°04'0 0.0
2013-Mar-28 15:27N 26°08' W 080°04'0 0.0
2013-Mar-28 14:30N 26°08' W 080°04'0 0.0
2013-Mar-28 13:30N 26°08' W 080°04'0 0.0
2013-Mar-28 12:33N 26°08' W 080°04'0 0.0
2013-Mar-28 11:33N 26°08' W 080°04'0 0.0
2013-Mar-28 10:33N 26°08' W 080°04'0 0.0
2013-Mar-28 09:33N 26°08' W 080°04'0 0.0
2013-Mar-28 08:33N 26°08' W 080°04'0 0.0
2013-Mar-28 07:21N 26°08' W 080°04'0 0.0
2013-Mar-28 06:33N 26°08' W 080°04'0 0.0
2013-Mar-28 04:21N 26°08' W 080°04'0 0.0
2013-Mar-28 03:27N 26°08' W 080°04'0 0.0
2013-Mar-28 02:27N 26°08' W 080°04'0 0.0
2013-Mar-28 01:27N 26°08' W 080°04'0 0.1
2013-Mar-28 00:30N 26°08' W 080°04'0 0.0
2013-Mar-27 23:30N 26°08' W 080°04'0 0.0
2013-Mar-27 22:30N 26°08' W 080°04'0 0.0
2013-Mar-27 21:33N 26°08' W 080°05'0 0.0
2013-Mar-27 20:33N 26°08' W 080°04'0 0.0
2013-Mar-27 19:33N 26°08' W 080°04'0 0.0
2013-Mar-27 18:33N 26°08' W 080°04'0 0.0
2013-Mar-27 17:33N 26°08' W 080°04'0 0.0
2013-Mar-27 16:33N 26°08' W 080°04'0 0.0
2013-Mar-27 15:33N 26°08' W 080°04'0 0.0
2013-Mar-27 14:21N 26°08' W 080°04'1 0.6
2013-Mar-27 13:33N 26°08' W 080°04'3 2.5
2013-Mar-27 12:33N 26°07' W 080°01'0 0.4
2013-Mar-27 11:33N 26°07' W 080°02'1 1.2
2013-Mar-27 10:33N 26°07' W 080°03'6 6.0
2013-Mar-27 09:33N 26°06' W 079°56'5 5.1
2013-Mar-27 08:33N 26°10' W 079°52'1010.3
2013-Mar-27 07:33N 26°20' W 079°49'1110.9
2013-Mar-27 06:33N 26°30' W 079°47'40 1.7
2013-Mar-26 06:13N 26°29' W 079°02'1211.1
2013-Mar-26 05:09N 26°23' W 078°50'1011.8
2013-Mar-26 04:18N 26°19' W 078°40'  

Dump ship's entire track history

sailing weather and tide predictions

Hallinden — DYVF — position and weather